KGUP/GUP METAR and TAF weather

Enter ICAO airport designator
Station Type Date Time Source
KGUP METAR 2022/12/04 03:53 UTC NOAA

KGUP 040353Z AUTO 17009G18KT 10SM -RA SCT055 SCT070 OVC100 08/05 A3030 RMK AO2 RAB39 SLP237 P0000 T00780050


Station Type Date Time Source
KGUP Decoded METAR 2022/12/04 03:53 UTC NOAA

GALLUP MUNICIPAL AIRPORT, NM, United States (KGUP) 35-31N 108-47W 1971M
Dec 03, 2022 - 10:53 PM EST / 2022.12.04 0353 UTC
Wind: from the S (170 degrees) at 10 MPH (9 KT) gusting to 21 MPH (18 KT):0
Visibility: 10 mile(s):0
Sky conditions: overcast
Weather: light rain
Precipitation last hour: A trace
Temperature: 46.0 F (7.8 C)
Dew Point: 41.0 F (5.0 C)
Relative Humidity: 82%
Pressure (altimeter): 30.3 in. Hg (1026 hPa)
ob: KGUP 040353Z AUTO 17009G18KT 10SM -RA SCT055 SCT070 OVC100 08/05 A3030 RMK AO2 RAB39 SLP237 P0000 T00780050
cycle: 4

Station Type Date Time Source
KGUP TAF 2022/12/04 02:58 UTC NOAA

TAF
AMD KGUP 040157Z 0402/0424 19010KT P6SM SCT040 OVC090
FM040500 19007KT 6SM -RA BR BKN025 OVC035
FM041000 18005KT 4SM -RA BR OVC009
FM042100 23009KT P6SM BKN025 OVC050

Example: see airport list